Terminal Aerodrome Forecast
Issued by NWS Cleveland, OH

Home | Current Version | Previous Version | Text Only | Print | Product List | Glossary On
Versions: 1 2 3 4 5 6 7 8 9 10 11 12 13 14 15 16 17
000
FTUS41 KCLE 282340
TAFTOL
TAF
KTOL 282340Z 2900/2924 10005KT P6SM SKC
     FM291500 19010KT P6SM BKN050
     FM292200 21010KT P6SM -TSRA BKN100CB=

USA.gov is the U.S. government's official web portal to all federal, state and local government web resources and services.